Time;durP1;ratioP1;P1;durP2;ratioP2;P2;SDS_P1;SDS_P2;PMS_P1;PMS_P2;Temp;Humidity;BMP_temperature;BMP_pressure;BME280_temperature;BME280_humidity;BME280_pressure;Samples;Min_cycle;Max_cycle;Signal;HPM_P1;HPM_P2
2021/09/02 00:02:11;;;;;;;19.38;9.32;;;16.80;99.90;;;;;;4896235;29;38696;-77
2021/09/02 00:04:37;;;;;;;15.50;9.20;;;16.70;99.90;;;;;;4916133;28;37461;-77
2021/09/02 00:07:03;;;;;;;14.95;10.00;;;16.80;99.90;;;;;;4915736;28;37340;-77
2021/09/02 00:09:29;;;;;;;13.43;8.98;;;16.80;99.90;;;;;;4918719;28;38168;-78
2021/09/02 00:11:56;;;;;;;14.07;9.30;;;16.80;99.90;;;;;;4915547;28;39554;-77
2021/09/02 00:14:22;;;;;;;13.60;9.18;;;16.70;99.90;;;;;;4916932;28;36084;-77
2021/09/02 00:16:49;;;;;;;13.30;9.65;;;16.70;99.90;;;;;;4895663;29;39422;-77
2021/09/02 00:19:15;;;;;;;12.93;9.25;;;16.70;99.90;;;;;;4900725;29;37871;-77
2021/09/02 00:21:41;;;;;;;12.95;8.65;;;16.70;99.90;;;;;;4916356;28;39553;-77
2021/09/02 00:24:07;;;;;;;12.15;8.65;;;16.70;99.90;;;;;;4915436;28;37236;-78
2021/09/02 00:26:34;;;;;;;13.48;8.60;;;16.70;99.90;;;;;;4896406;28;39152;-78
2021/09/02 00:29:00;;;;;;;11.07;8.65;;;16.70;99.90;;;;;;4917773;28;37000;-78
2021/09/02 00:31:26;;;;;;;12.93;7.72;;;16.60;99.90;;;;;;4916682;28;37002;-78
2021/09/02 00:33:52;;;;;;;9.80;7.10;;;16.60;99.90;;;;;;4912839;28;37964;-78
2021/09/02 00:36:18;;;;;;;11.75;7.47;;;16.70;99.90;;;;;;4895131;29;39509;-77
2021/09/02 00:38:45;;;;;;;11.90;7.88;;;16.60;99.90;;;;;;4916049;28;36872;-78
2021/09/02 00:41:11;;;;;;;10.15;7.18;;;16.60;99.90;;;;;;4914677;28;36921;-78
2021/09/02 00:43:38;;;;;;;10.75;7.55;;;16.60;99.90;;;;;;4920591;28;37209;-77
2021/09/02 00:46:06;;;;;;;11.98;7.68;;;16.60;99.90;;;;;;4915936;28;38899;-77
2021/09/02 00:48:33;;;;;;;11.10;7.05;;;16.60;99.90;;;;;;4917842;28;37282;-77
2021/09/02 00:50:59;;;;;;;9.63;6.22;;;16.60;99.90;;;;;;4915294;28;37824;-77
2021/09/02 00:53:25;;;;;;;9.80;6.18;;;16.60;99.90;;;;;;4915783;28;36931;-77
2021/09/02 00:55:51;;;;;;;7.22;5.63;;;16.60;99.90;;;;;;4914003;28;37400;-78
2021/09/02 00:58:21;;;;;;;9.50;6.88;;;16.60;99.90;;;;;;4883855;28;38156;-77
2021/09/02 01:00:48;;;;;;;8.02;5.65;;;16.60;99.90;;;;;;4884780;28;38710;-76
2021/09/02 01:03:18;;;;;;;6.75;5.97;;;16.60;99.90;;;;;;4891907;28;37150;-76
2021/09/02 01:05:46;;;;;;;7.68;5.85;;;16.60;99.90;;;;;;4895644;28;38909;-76
2021/09/02 01:08:14;;;;;;;7.80;5.22;;;16.60;99.90;;;;;;4916284;28;38310;-76
2021/09/02 01:10:41;;;;;;;8.18;5.53;;;16.60;99.90;;;;;;4914553;28;37452;-76
2021/09/02 01:13:07;;;;;;;8.88;5.97;;;16.60;99.90;;;;;;4915566;28;37021;-76
2021/09/02 01:15:33;;;;;;;8.27;5.13;;;16.60;99.90;;;;;;4915221;28;39258;-78
2021/09/02 01:18:00;;;;;;;7.70;5.00;;;16.60;99.90;;;;;;4918501;28;38428;-78
2021/09/02 01:20:28;;;;;;;7.05;4.68;;;16.60;99.90;;;;;;4910259;28;39486;-78
2021/09/02 01:22:57;;;;;;;7.18;4.88;;;16.60;99.90;;;;;;4917110;28;37917;-76
2021/09/02 01:25:29;;;;;;;5.75;4.20;;;16.60;99.90;;;;;;4895168;29;39521;-76
2021/09/02 01:27:59;;;;;;;6.88;4.22;;;16.60;99.90;;;;;;4913096;28;38150;-76
2021/09/02 01:30:26;;;;;;;6.88;4.22;;;16.60;99.90;;;;;;4915169;28;37585;-76
2021/09/02 01:32:53;;;;;;;5.50;3.83;;;16.60;99.90;;;;;;4915039;28;38027;-76
2021/09/02 01:35:21;;;;;;;7.15;4.50;;;16.60;99.90;;;;;;4911007;28;40202;-76
2021/09/02 01:37:55;;;;;;;5.72;3.90;;;16.60;99.90;;;;;;4914606;28;37372;-76
2021/09/02 01:40:25;;;;;;;6.00;3.90;;;16.50;99.90;;;;;;4899173;29;39409;-76
2021/09/02 01:42:52;;;;;;;7.43;4.10;;;16.50;99.90;;;;;;4917118;29;37168;-76
2021/09/02 01:45:18;;;;;;;5.30;3.63;;;16.50;99.90;;;;;;4913591;28;40287;-77
2021/09/02 01:47:44;;;;;;;8.43;4.18;;;16.50;99.90;;;;;;4913017;28;37158;-76
2021/09/02 01:50:17;;;;;;;7.75;3.90;;;16.50;99.90;;;;;;4912153;28;38625;-76
2021/09/02 01:52:44;;;;;;;4.40;3.55;;;16.50;99.90;;;;;;4916733;28;36599;-76
2021/09/02 01:55:12;;;;;;;5.35;3.47;;;16.50;99.90;;;;;;4895568;28;40402;-76
2021/09/02 01:57:39;;;;;;;4.82;3.20;;;16.50;99.90;;;;;;4913673;28;38170;-76
2021/09/02 02:00:12;;;;;;;4.85;3.42;;;16.50;99.90;;;;;;4916753;28;37984;-76
2021/09/02 02:02:39;;;;;;;5.55;3.40;;;16.50;99.90;;;;;;4912370;28;48155;-76
2021/09/02 02:05:06;;;;;;;5.10;3.88;;;16.50;99.90;;;;;;4913165;28;38756;-76
2021/09/02 02:07:32;;;;;;;5.00;3.28;;;16.50;99.90;;;;;;4914151;28;38243;-76
2021/09/02 02:09:58;;;;;;;6.57;3.53;;;16.50;99.90;;;;;;4915301;28;38817;-76
2021/09/02 02:12:24;;;;;;;4.70;3.90;;;16.50;99.90;;;;;;4894192;29;39010;-76
2021/09/02 02:14:51;;;;;;;4.82;3.42;;;16.50;99.90;;;;;;4899904;29;38321;-76
2021/09/02 02:17:17;;;;;;;5.30;3.42;;;16.50;99.90;;;;;;4917422;28;38379;-76
2021/09/02 02:19:43;;;;;;;4.25;3.35;;;16.50;99.90;;;;;;4920143;28;38753;-76
2021/09/02 02:22:09;;;;;;;4.65;3.45;;;16.50;99.90;;;;;;4913327;28;38287;-76
2021/09/02 02:24:35;;;;;;;4.45;3.58;;;16.50;99.90;;;;;;4913315;28;38824;-76
2021/09/02 02:27:01;;;;;;;5.40;3.50;;;16.50;99.90;;;;;;4901524;28;39437;-76
2021/09/02 02:29:28;;;;;;;5.28;3.60;;;16.50;99.90;;;;;;4919351;28;37856;-76
2021/09/02 02:31:54;;;;;;;5.28;3.72;;;16.50;99.90;;;;;;4917828;28;37196;-77
2021/09/02 02:34:20;;;;;;;4.30;3.30;;;16.50;99.90;;;;;;4918100;28;39848;-77
2021/09/02 02:36:46;;;;;;;5.00;3.70;;;16.50;99.90;;;;;;4916811;28;37555;-77
2021/09/02 02:39:12;;;;;;;5.05;3.60;;;16.50;99.90;;;;;;4899384;28;38216;-77
2021/09/02 02:41:38;;;;;;;6.03;3.90;;;16.50;99.90;;;;;;4899843;29;38337;-77
2021/09/02 02:44:04;;;;;;;7.82;4.22;;;16.50;99.90;;;;;;4922889;28;36727;-77
2021/09/02 02:46:31;;;;;;;4.85;4.13;;;16.50;99.90;;;;;;4919389;28;38305;-76
2021/09/02 02:48:57;;;;;;;5.25;3.85;;;16.50;99.90;;;;;;4901826;28;38679;-77
2021/09/02 02:51:23;;;;;;;6.35;4.45;;;16.50;99.90;;;;;;4926490;28;36772;-77
2021/09/02 02:53:49;;;;;;;7.22;4.32;;;16.40;99.90;;;;;;4921049;28;40037;-77
2021/09/02 02:56:15;;;;;;;7.47;4.90;;;16.40;99.90;;;;;;4916223;28;40522;-76
2021/09/02 02:58:42;;;;;;;4.60;3.60;;;16.40;99.90;;;;;;4914031;28;39585;-77
2021/09/02 03:01:08;;;;;;;4.93;3.83;;;16.40;99.90;;;;;;4918608;28;35768;-77
2021/09/02 03:03:34;;;;;;;6.43;4.35;;;16.40;99.90;;;;;;4916146;28;39093;-77
2021/09/02 03:06:00;;;;;;;5.63;4.65;;;16.40;99.90;;;;;;4914870;28;37146;-76
2021/09/02 03:08:26;;;;;;;7.78;5.13;;;16.40;99.90;;;;;;4918992;28;38265;-77
2021/09/02 03:10:52;;;;;;;6.47;4.30;;;16.40;99.90;;;;;;4912750;28;39044;-76
2021/09/02 03:13:18;;;;;;;7.75;4.10;;;16.40;99.90;;;;;;4918012;28;39855;-77
2021/09/02 03:15:44;;;;;;;8.27;4.50;;;16.30;99.90;;;;;;4915770;28;39369;-77
2021/09/02 03:18:10;;;;;;;7.32;4.32;;;16.40;99.90;;;;;;4916373;28;38022;-77
2021/09/02 03:20:36;;;;;;;7.80;4.65;;;16.30;99.90;;;;;;4917588;28;38029;-77
2021/09/02 03:23:03;;;;;;;5.93;4.38;;;16.30;99.90;;;;;;4915400;28;39643;-77
2021/09/02 03:25:29;;;;;;;5.53;4.30;;;16.30;99.90;;;;;;4914166;28;38856;-78
2021/09/02 03:27:55;;;;;;;5.78;4.38;;;16.30;99.90;;;;;;4901740;29;39002;-78
2021/09/02 03:30:21;;;;;;;8.20;4.57;;;16.30;99.90;;;;;;4915079;28;38770;-79
2021/09/02 03:32:47;;;;;;;5.82;4.05;;;16.30;99.90;;;;;;4918252;28;40457;-77
2021/09/02 03:35:13;;;;;;;7.38;4.25;;;16.30;99.90;;;;;;4913304;28;38739;-78
2021/09/02 03:37:39;;;;;;;8.43;4.68;;;16.20;99.90;;;;;;4912100;28;38993;-77
2021/09/02 03:40:06;;;;;;;11.00;4.57;;;16.20;99.90;;;;;;4918486;28;37831;-78
2021/09/02 03:42:32;;;;;;;7.25;4.65;;;16.20;99.90;;;;;;4915939;28;40693;-78
2021/09/02 03:44:58;;;;;;;6.13;4.32;;;16.20;99.90;;;;;;4917386;28;39832;-78
2021/09/02 03:47:24;;;;;;;12.90;5.10;;;16.20;99.90;;;;;;4917307;28;38593;-78
2021/09/02 03:49:50;;;;;;;4.85;4.05;;;16.20;99.90;;;;;;4899163;29;36037;-78
2021/09/02 03:52:16;;;;;;;6.82;5.20;;;16.20;99.90;;;;;;4913892;28;38181;-78
2021/09/02 03:54:42;;;;;;;6.72;4.43;;;16.30;99.90;;;;;;4916649;28;37885;-78
2021/09/02 03:57:08;;;;;;;5.32;4.28;;;16.30;99.90;;;;;;4916368;28;38553;-78
2021/09/02 03:59:34;;;;;;;6.40;4.43;;;16.30;99.90;;;;;;4910771;28;38477;-77
2021/09/02 04:02:00;;;;;;;7.20;5.05;;;16.20;99.90;;;;;;4896307;28;40631;-78
2021/09/02 04:04:26;;;;;;;4.78;4.15;;;16.20;99.90;;;;;;4915183;28;47105;-78
2021/09/02 04:06:52;;;;;;;6.25;4.25;;;16.20;99.90;;;;;;4897723;29;38338;-78
2021/09/02 04:09:19;;;;;;;4.47;3.65;;;16.20;99.90;;;;;;4917920;28;37103;-77
2021/09/02 04:11:45;;;;;;;9.35;4.70;;;16.20;99.90;;;;;;4901391;29;39135;-77
2021/09/02 04:14:11;;;;;;;6.40;4.05;;;16.20;99.90;;;;;;4918578;28;36988;-77
2021/09/02 04:16:37;;;;;;;5.10;4.13;;;16.20;99.90;;;;;;4918936;28;38101;-77
2021/09/02 04:19:03;;;;;;;8.25;4.65;;;16.20;99.90;;;;;;4916154;28;37133;-77
2021/09/02 04:21:29;;;;;;;6.80;4.05;;;16.20;99.90;;;;;;4915082;28;38732;-77
2021/09/02 04:23:55;;;;;;;6.03;4.28;;;16.20;99.90;;;;;;4914591;28;38067;-77
2021/09/02 04:26:21;;;;;;;7.20;4.35;;;16.20;99.90;;;;;;4911781;28;38800;-77
2021/09/02 04:28:47;;;;;;;6.05;4.35;;;16.20;99.90;;;;;;4917819;28;38612;-77
2021/09/02 04:31:13;;;;;;;7.88;4.40;;;16.20;99.90;;;;;;4914566;28;38240;-77
2021/09/02 04:33:39;;;;;;;5.13;3.67;;;16.20;99.90;;;;;;4899990;28;38572;-77
2021/09/02 04:36:06;;;;;;;6.53;4.18;;;16.20;99.90;;;;;;4911917;28;38552;-77
2021/09/02 04:38:32;;;;;;;6.82;4.55;;;16.30;99.90;;;;;;4913986;28;37494;-77
2021/09/02 04:40:58;;;;;;;6.30;4.47;;;16.30;99.90;;;;;;4896217;28;39493;-77
2021/09/02 04:43:24;;;;;;;7.00;4.32;;;16.20;99.90;;;;;;4912307;28;38532;-78
2021/09/02 04:45:50;;;;;;;8.93;4.47;;;16.20;99.90;;;;;;4914590;28;37263;-77
2021/09/02 04:48:18;;;;;;;7.00;4.10;;;16.20;99.90;;;;;;4918008;28;36130;-78
2021/09/02 04:50:46;;;;;;;4.85;3.67;;;16.20;99.90;;;;;;4910127;28;37652;-77
2021/09/02 04:53:13;;;;;;;6.50;3.75;;;16.20;99.90;;;;;;4912781;28;38347;-77
2021/09/02 04:55:39;;;;;;;6.90;4.22;;;16.20;99.90;;;;;;4912101;29;36286;-77
2021/09/02 04:58:07;;;;;;;6.45;3.72;;;16.20;99.90;;;;;;4909069;28;39105;-77
2021/09/02 05:00:35;;;;;;;5.25;4.18;;;16.20;99.90;;;;;;4911290;28;38666;-77
2021/09/02 05:03:02;;;;;;;4.65;3.92;;;16.20;99.90;;;;;;4910658;28;39786;-77
2021/09/02 05:05:28;;;;;;;5.95;3.78;;;16.20;99.90;;;;;;4910054;28;38845;-77
2021/09/02 05:07:54;;;;;;;5.70;4.00;;;16.20;99.90;;;;;;4914504;29;35943;-77
2021/09/02 05:10:21;;;;;;;6.55;3.83;;;16.20;99.90;;;;;;4913745;28;37346;-78
2021/09/02 05:12:47;;;;;;;8.60;4.00;;;16.20;99.90;;;;;;4919815;28;39721;-77
2021/09/02 05:15:13;;;;;;;7.85;3.88;;;16.20;99.90;;;;;;4913379;28;38006;-77
2021/09/02 05:17:39;;;;;;;9.23;4.78;;;16.20;99.90;;;;;;4897826;29;37071;-77
2021/09/02 05:20:06;;;;;;;5.65;3.95;;;16.20;99.90;;;;;;4911920;28;39806;-77
2021/09/02 05:22:32;;;;;;;5.90;4.07;;;16.20;99.90;;;;;;4915153;29;36788;-77
2021/09/02 05:24:59;;;;;;;5.72;4.25;;;16.20;99.90;;;;;;4912227;29;36904;-77
2021/09/02 05:27:25;;;;;;;6.05;4.22;;;16.20;99.90;;;;;;4915362;28;37388;-77
2021/09/02 05:29:53;;;;;;;6.25;4.63;;;16.20;99.90;;;;;;4916994;28;40073;-77
2021/09/02 05:32:19;;;;;;;6.97;4.50;;;16.20;99.90;;;;;;4915142;28;39077;-77
2021/09/02 05:34:45;;;;;;;6.57;4.35;;;16.20;99.90;;;;;;4912944;28;38542;-77
2021/09/02 05:37:11;;;;;;;7.75;4.68;;;16.20;99.90;;;;;;4915874;28;37902;-77
2021/09/02 05:39:37;;;;;;;5.50;4.22;;;16.20;99.90;;;;;;4899503;29;40411;-77
2021/09/02 05:42:04;;;;;;;7.22;4.85;;;16.20;99.90;;;;;;4911984;28;37877;-77
2021/09/02 05:44:30;;;;;;;8.25;4.50;;;16.20;99.90;;;;;;4916644;28;38781;-77
2021/09/02 05:46:56;;;;;;;7.70;4.75;;;16.20;99.90;;;;;;4915807;29;36580;-77
2021/09/02 05:49:23;;;;;;;6.20;4.15;;;16.20;99.90;;;;;;4918922;28;38281;-77
2021/09/02 05:51:49;;;;;;;8.18;4.25;;;16.30;99.90;;;;;;4902477;29;38610;-77
2021/09/02 05:54:16;;;;;;;4.95;4.05;;;16.30;99.90;;;;;;4901530;29;38656;-77
2021/09/02 05:56:42;;;;;;;6.10;4.50;;;16.40;99.90;;;;;;4917496;28;37267;-77
2021/09/02 05:59:08;;;;;;;7.13;3.88;;;16.40;99.90;;;;;;4923104;29;38491;-77
2021/09/02 06:01:34;;;;;;;6.57;4.18;;;16.40;99.90;;;;;;4919893;28;39275;-78
2021/09/02 06:04:00;;;;;;;7.43;4.40;;;16.40;99.90;;;;;;4899058;29;39886;-78
2021/09/02 06:06:26;;;;;;;6.72;4.05;;;16.40;99.90;;;;;;4909697;28;37088;-76
2021/09/02 06:08:52;;;;;;;7.40;4.07;;;16.50;99.90;;;;;;4914344;28;37866;-78
2021/09/02 06:11:18;;;;;;;7.15;4.45;;;16.50;99.90;;;;;;4896982;28;38771;-77
2021/09/02 06:13:45;;;;;;;8.93;4.78;;;16.50;99.90;;;;;;4901904;28;38520;-78
2021/09/02 06:16:11;;;;;;;5.95;4.10;;;16.50;99.90;;;;;;4900135;28;37095;-77
2021/09/02 06:18:37;;;;;;;6.97;4.28;;;16.40;99.90;;;;;;4920014;28;38474;-78
2021/09/02 06:21:03;;;;;;;6.03;3.88;;;16.50;99.90;;;;;;4918590;28;39042;-78
2021/09/02 06:23:29;;;;;;;6.25;3.88;;;16.50;99.90;;;;;;4914754;28;38949;-78
2021/09/02 06:25:55;;;;;;;7.50;4.22;;;16.60;99.90;;;;;;4921811;28;38693;-78
2021/09/02 06:28:22;;;;;;;6.90;4.25;;;16.70;99.90;;;;;;4921592;28;38775;-78
2021/09/02 06:30:48;;;;;;;6.22;4.28;;;16.70;99.90;;;;;;4920663;28;38046;-79
2021/09/02 06:33:14;;;;;;;11.55;5.15;;;16.70;99.90;;;;;;4919354;28;37819;-78
2021/09/02 06:35:40;;;;;;;8.93;4.18;;;16.80;99.90;;;;;;4903675;29;39717;-77
2021/09/02 06:38:07;;;;;;;9.07;4.05;;;16.80;99.90;;;;;;4917590;28;38666;-77
2021/09/02 06:40:33;;;;;;;9.50;3.58;;;16.90;99.90;;;;;;4921508;28;37077;-78
2021/09/02 06:43:00;;;;;;;8.02;4.65;;;17.00;99.90;;;;;;4905133;29;36691;-78
2021/09/02 06:45:26;;;;;;;11.73;4.45;;;17.10;99.90;;;;;;4919263;28;47211;-78
2021/09/02 06:47:52;;;;;;;8.13;3.75;;;17.00;99.90;;;;;;4922408;29;39582;-78
2021/09/02 06:50:18;;;;;;;6.45;3.83;;;17.10;99.90;;;;;;4924380;28;38982;-78
2021/09/02 06:52:45;;;;;;;5.80;3.38;;;17.20;99.90;;;;;;4917274;28;39950;-77
2021/09/02 06:55:11;;;;;;;5.68;3.53;;;17.10;99.90;;;;;;4917255;29;38233;-78
2021/09/02 06:57:38;;;;;;;5.82;3.47;;;17.10;99.90;;;;;;4920279;28;38918;-79
2021/09/02 07:00:06;;;;;;;5.93;3.63;;;17.20;99.90;;;;;;4916847;28;37936;-78
2021/09/02 07:02:33;;;;;;;7.68;3.97;;;17.10;99.90;;;;;;4926267;29;47914;-78
2021/09/02 07:05:00;;;;;;;7.22;4.20;;;17.10;99.90;;;;;;4921499;28;38552;-77
2021/09/02 07:07:26;;;;;;;7.88;4.40;;;17.10;99.90;;;;;;4916763;28;40503;-78
2021/09/02 07:09:52;;;;;;;7.53;4.43;;;17.10;99.90;;;;;;4920366;28;39572;-78
2021/09/02 07:12:18;;;;;;;7.90;3.97;;;17.20;99.90;;;;;;4920470;28;36627;-78
2021/09/02 07:14:44;;;;;;;7.13;4.43;;;17.20;99.90;;;;;;4920452;28;36844;-78
2021/09/02 07:17:10;;;;;;;8.75;4.03;;;17.30;99.90;;;;;;4918846;28;40142;-78
2021/09/02 07:19:37;;;;;;;9.02;4.47;;;17.40;99.90;;;;;;4920366;29;38272;-78
2021/09/02 07:22:03;;;;;;;7.45;3.67;;;17.40;99.90;;;;;;4920231;28;39123;-77
2021/09/02 07:24:29;;;;;;;6.68;3.75;;;17.40;99.90;;;;;;4916785;28;37421;-77
2021/09/02 07:26:55;;;;;;;5.90;3.70;;;17.50;99.90;;;;;;4915084;29;38301;-78
2021/09/02 07:29:21;;;;;;;7.38;4.32;;;17.70;99.90;;;;;;4919213;28;38235;-78
2021/09/02 07:31:47;;;;;;;8.45;4.10;;;17.80;99.90;;;;;;4918262;28;38551;-78
2021/09/02 07:34:14;;;;;;;6.97;4.45;;;17.80;99.90;;;;;;4918535;28;37946;-78
2021/09/02 07:36:40;;;;;;;7.38;4.22;;;17.90;99.90;;;;;;4913164;28;40321;-78
2021/09/02 07:39:07;;;;;;;6.15;3.67;;;18.00;99.90;;;;;;4920008;28;38335;-77
2021/09/02 07:41:34;;;;;;;7.93;4.22;;;18.10;99.90;;;;;;4916031;28;39064;-78
2021/09/02 07:44:01;;;;;;;8.90;4.75;;;18.30;99.90;;;;;;4924724;28;37169;-78
2021/09/02 07:46:27;;;;;;;6.68;3.97;;;18.10;99.90;;;;;;4917131;28;47345;-77
2021/09/02 07:48:53;;;;;;;7.18;4.28;;;18.20;99.90;;;;;;4920753;28;38504;-78
2021/09/02 07:51:19;;;;;;;8.82;4.53;;;18.10;99.90;;;;;;4901069;29;38475;-77
2021/09/02 07:53:46;;;;;;;7.45;4.03;;;18.20;99.90;;;;;;4919265;28;38833;-77
2021/09/02 07:56:12;;;;;;;6.90;4.10;;;18.10;99.90;;;;;;4918334;28;38303;-78
2021/09/02 07:58:39;;;;;;;9.07;4.53;;;18.10;99.90;;;;;;4917807;29;40114;-77
2021/09/02 08:01:10;;;;;;;7.57;3.92;;;18.20;99.90;;;;;;4917536;28;36812;-77
2021/09/02 08:03:37;;;;;;;5.15;3.88;;;18.30;99.90;;;;;;4916523;28;37257;-79
2021/09/02 08:06:04;;;;;;;6.13;3.97;;;18.50;99.90;;;;;;4917187;28;38792;-78
2021/09/02 08:08:30;;;;;;;8.30;4.25;;;18.50;99.90;;;;;;4915432;28;38569;-79
2021/09/02 08:10:56;;;;;;;7.70;4.28;;;18.40;99.90;;;;;;4918235;28;38165;-79
2021/09/02 08:13:23;;;;;;;7.97;3.85;;;18.50;99.90;;;;;;4914315;28;37558;-79
2021/09/02 08:15:49;;;;;;;7.45;4.13;;;18.50;99.90;;;;;;4920064;28;39843;-79
2021/09/02 08:18:15;;;;;;;6.57;3.90;;;18.70;99.90;;;;;;4921187;28;38350;-78
2021/09/02 08:20:41;;;;;;;8.23;4.13;;;18.70;99.90;;;;;;4928552;29;39486;-79
2021/09/02 08:23:08;;;;;;;7.65;3.97;;;18.80;99.90;;;;;;4929232;28;37298;-79
2021/09/02 08:25:34;;;;;;;7.53;4.28;;;18.90;99.90;;;;;;4921587;28;40963;-79
2021/09/02 08:28:01;;;;;;;9.15;4.97;;;18.90;99.90;;;;;;4922448;29;38146;-79
2021/09/02 08:30:28;;;;;;;5.38;3.72;;;18.90;99.90;;;;;;4924817;28;48688;-78
2021/09/02 08:32:56;;;;;;;5.88;4.13;;;18.90;99.90;;;;;;4928885;28;37168;-79
2021/09/02 08:35:28;;;;;;;7.07;4.25;;;19.10;99.90;;;;;;4911561;29;40441;-79
2021/09/02 08:38:03;;;;;;;7.80;3.97;;;19.20;99.90;;;;;;4926271;28;40200;-77
2021/09/02 08:40:32;;;;;;;6.65;3.95;;;19.30;99.90;;;;;;4924549;28;48286;-79
2021/09/02 08:42:59;;;;;;;6.45;3.90;;;19.30;99.90;;;;;;4926187;28;37560;-77
2021/09/02 08:45:27;;;;;;;6.03;4.10;;;19.30;99.90;;;;;;4924586;28;40294;-79
2021/09/02 08:47:53;;;;;;;8.63;4.15;;;19.30;99.90;;;;;;4910038;29;39796;-79
2021/09/02 08:50:23;;;;;;;7.25;4.50;;;19.20;99.90;;;;;;4924449;28;38058;-77
2021/09/02 08:52:50;;;;;;;9.85;4.07;;;19.20;99.90;;;;;;4924897;28;38299;-77
2021/09/02 08:55:17;;;;;;;8.25;3.65;;;19.40;99.90;;;;;;4911629;29;39331;-80
2021/09/02 08:57:46;;;;;;;7.95;4.10;;;19.30;99.90;;;;;;4908350;28;38935;-79
2021/09/02 09:00:12;;;;;;;7.22;4.60;;;19.10;99.90;;;;;;4926903;28;38008;-79
2021/09/02 09:02:42;;;;;;;6.72;3.83;;;19.00;99.90;;;;;;4910391;29;37295;-79
2021/09/02 09:05:10;;;;;;;6.75;3.97;;;19.20;99.90;;;;;;4923457;28;39314;-79
2021/09/02 09:07:38;;;;;;;6.80;3.70;;;19.20;99.90;;;;;;4924114;28;38961;-79
2021/09/02 09:10:17;;;;;;;6.43;3.63;;;19.40;99.90;;;;;;4925035;28;39416;-75
2021/09/02 09:12:45;;;;;;;6.63;4.07;;;19.60;99.90;;;;;;4927582;28;38609;-79
2021/09/02 09:15:35;;;;;;;7.07;3.83;;;19.40;99.90;;;;;;4927189;28;38679;-79
2021/09/02 09:18:19;;;;;;;8.20;4.18;;;19.40;99.90;;;;;;4926357;29;38201;-78
2021/09/02 09:21:08;;;;;;;5.95;3.88;;;19.10;99.90;;;;;;4923825;28;38879;-79
2021/09/02 09:24:02;;;;;;;6.18;4.20;;;19.20;99.90;;;;;;4927915;28;48804;-79
2021/09/02 09:26:31;;;;;;;7.45;3.88;;;19.20;99.90;;;;;;4915423;29;47120;-79
2021/09/02 09:29:03;;;;;;;8.35;4.20;;;19.00;99.90;;;;;;4923959;28;37943;-79
2021/09/02 09:31:31;;;;;;;;;;;19.10;99.90;;;;;;4930954;28;48774;-79
2021/09/02 09:33:59;;;;;;;7.82;4.18;;;19.20;99.90;;;;;;4945365;28;37738;-79
2021/09/02 09:36:28;;;;;;;9.27;4.25;;;19.30;99.90;;;;;;4928376;28;39313;-79
2021/09/02 09:39:05;;;;;;;9.13;4.57;;;19.30;99.90;;;;;;4930383;28;38989;-79
2021/09/02 09:41:40;;;;;;;7.03;4.25;;;19.10;99.90;;;;;;4914013;29;47347;-77
2021/09/02 09:44:27;;;;;;;6.93;3.70;;;19.40;99.90;;;;;;4928300;29;38182;-77
2021/09/02 09:47:08;;;;;;;8.90;4.50;;;19.60;99.90;;;;;;4928131;28;39602;-76
2021/09/02 09:49:58;;;;;;;7.72;4.38;;;19.70;99.90;;;;;;4928001;28;49921;-77
2021/09/02 09:52:35;;;;;;;7.60;4.18;;;19.80;99.90;;;;;;4926692;28;38752;-78
2021/09/02 09:55:13;;;;;;;6.15;3.55;;;20.10;99.90;;;;;;4932568;29;37317;-77
2021/09/02 09:57:41;;;;;;;6.57;4.30;;;20.40;99.90;;;;;;4928598;28;46941;-77
2021/09/02 10:00:11;;;;;;;7.18;4.03;;;20.50;99.90;;;;;;4914908;29;39006;-75
2021/09/02 10:02:40;;;;;;;12.05;4.93;;;20.80;99.90;;;;;;4932614;29;38080;-78
2021/09/02 10:05:08;;;;;;;9.18;4.18;;;20.70;99.90;;;;;;4924773;28;38016;-77
2021/09/02 10:07:35;;;;;;;7.88;4.45;;;20.70;99.90;;;;;;4928302;28;39458;-78
2021/09/02 10:10:03;;;;;;;8.73;4.53;;;20.50;99.90;;;;;;4929022;28;38540;-78
2021/09/02 10:12:34;;;;;;;9.85;4.85;;;20.30;99.90;;;;;;4926409;29;40297;-77
2021/09/02 10:15:06;;;;;;;8.02;4.30;;;20.50;99.90;;;;;;4921644;29;37312;-77
2021/09/02 10:17:33;;;;;;;7.15;4.00;;;20.40;99.90;;;;;;4914927;28;46992;-77
2021/09/02 10:20:09;;;;;;;9.02;4.93;;;20.30;99.90;;;;;;4929408;28;38807;-77
2021/09/02 10:22:35;;;;;;;6.22;4.13;;;20.30;99.90;;;;;;4918402;28;47175;-78
2021/09/02 10:25:01;;;;;;;8.73;4.55;;;20.30;99.90;;;;;;4917604;29;37642;-78
2021/09/02 10:27:30;;;;;;;8.93;4.60;;;20.20;99.90;;;;;;4917965;28;39303;-77
2021/09/02 10:29:56;;;;;;;8.68;4.82;;;20.10;99.90;;;;;;4922375;28;39223;-77
2021/09/02 10:32:26;;;;;;;9.65;5.57;;;20.00;99.90;;;;;;4909480;28;38362;-77
2021/09/02 10:34:54;;;;;;;9.38;5.03;;;19.60;99.90;;;;;;4930178;28;37809;-78
2021/09/02 10:37:36;;;;;;;10.20;5.35;;;19.40;99.90;;;;;;4923339;28;39017;-78
2021/09/02 10:40:15;;;;;;;10.38;5.28;;;19.40;99.90;;;;;;4930886;28;38389;-78
2021/09/02 10:42:47;;;;;;;7.90;4.78;;;19.30;99.90;;;;;;4927009;28;47491;-77
2021/09/02 10:45:35;;;;;;;9.05;4.53;;;19.80;99.90;;;;;;4920330;28;38312;-77
2021/09/02 10:48:07;;;;;;;7.90;4.50;;;20.40;99.90;;;;;;4907236;28;39717;-77
2021/09/02 10:50:37;;;;;;;;;;;20.80;99.90;;;;;;4907942;29;47186;-78
2021/09/02 10:53:09;;;;;;;7.95;4.80;;;21.00;99.90;;;;;;4916141;29;38454;-77
2021/09/02 10:55:57;;;;;;;7.88;4.53;;;21.20;99.90;;;;;;4912165;29;37240;-78
2021/09/02 10:58:41;;;;;;;11.10;5.10;;;20.80;99.90;;;;;;4925944;28;39009;-78
2021/09/02 11:01:27;;;;;;;6.50;4.10;;;20.70;99.90;;;;;;4925707;28;41198;-77
2021/09/02 11:03:56;;;;;;;10.65;4.68;;;20.70;99.90;;;;;;4913545;29;38991;-78
2021/09/02 11:06:24;;;;;;;8.90;4.65;;;20.60;99.90;;;;;;4906199;29;36459;-77
2021/09/02 11:08:50;;;;;;;6.22;4.55;;;20.30;99.90;;;;;;4924420;28;37844;-77
2021/09/02 11:11:22;;;;;;;10.45;5.30;;;20.20;99.90;;;;;;4922870;28;38667;-77
2021/09/02 11:13:52;;;;;;;11.45;6.15;;;20.10;99.90;;;;;;4928979;28;38267;-77
2021/09/02 11:16:20;;;;;;;10.07;5.25;;;20.40;99.90;;;;;;4917495;29;36368;-78
2021/09/02 11:18:51;;;;;;;10.88;5.63;;;20.50;99.90;;;;;;4926200;28;37855;-77
2021/09/02 11:21:21;;;;;;;9.77;4.72;;;20.40;99.90;;;;;;4908523;28;38039;-77
2021/09/02 11:23:54;;;;;;;8.13;4.75;;;20.50;99.90;;;;;;4925522;28;38576;-77
2021/09/02 11:26:36;;;;;;;9.77;4.72;;;20.60;99.90;;;;;;4905976;28;35903;-78
2021/09/02 11:29:07;;;;;;;10.68;5.45;;;20.90;99.90;;;;;;4912015;28;37844;-76
2021/09/02 11:31:34;;;;;;;6.28;4.70;;;20.90;99.90;;;;;;4911823;29;38319;-77
2021/09/02 11:34:02;;;;;;;11.20;5.68;;;20.80;99.90;;;;;;4914636;28;36788;-77
2021/09/02 11:36:28;;;;;;;9.70;4.90;;;20.80;99.90;;;;;;4923078;28;50363;-77
2021/09/02 11:39:25;;;;;;;9.52;6.00;;;20.90;99.90;;;;;;4923637;28;39547;-77
2021/09/02 11:42:02;;;;;;;10.45;6.15;;;21.10;99.90;;;;;;4925863;28;48936;-77
2021/09/02 11:44:31;;;;;;;11.48;6.18;;;21.40;99.90;;;;;;4919914;29;47644;-77
2021/09/02 11:46:59;;;;;;;10.05;5.47;;;21.60;99.90;;;;;;4927151;28;36950;-77
2021/09/02 11:49:25;;;;;;;9.77;5.50;;;21.70;99.90;;;;;;4925594;28;37560;-77
2021/09/02 11:51:54;;;;;;;7.35;5.07;;;22.20;99.90;;;;;;4927888;28;37572;-77
2021/09/02 11:54:20;;;;;;;8.77;5.00;;;22.60;99.90;;;;;;4930446;28;38766;-79
2021/09/02 11:56:46;;;;;;;8.68;5.25;;;22.90;99.90;;;;;;4921220;28;36156;-79
2021/09/02 11:59:13;;;;;;;9.80;5.63;;;23.30;99.90;;;;;;4928054;28;39418;-79
2021/09/02 12:01:46;;;;;;;13.65;6.13;;;23.20;99.90;;;;;;4907927;29;38969;-79
2021/09/02 12:04:23;;;;;;;10.88;5.63;;;23.10;99.90;;;;;;4924226;28;38096;-79
2021/09/02 12:06:53;;;;;;;11.82;6.03;;;22.80;99.90;;;;;;4908324;29;35910;-79
2021/09/02 12:09:20;;;;;;;8.73;5.45;;;22.60;99.90;;;;;;4924965;28;38584;-79
2021/09/02 12:11:48;;;;;;;11.10;6.53;;;22.10;99.90;;;;;;4926121;28;39821;-78
2021/09/02 12:14:17;;;;;;;9.32;5.45;;;21.90;99.90;;;;;;4927770;29;37820;-79
2021/09/02 12:16:43;;;;;;;11.07;5.32;;;22.10;99.90;;;;;;4923270;29;37660;-79
2021/09/02 12:19:09;;;;;;;11.80;5.97;;;22.40;99.90;;;;;;4924509;29;39642;-79
2021/09/02 12:21:35;;;;;;;13.15;6.10;;;22.10;99.90;;;;;;4929152;29;38631;-80
2021/09/02 12:24:12;;;;;;;8.98;5.20;;;22.00;99.90;;;;;;4929650;29;38053;-77
2021/09/02 12:26:48;;;;;;;9.10;6.10;;;21.90;99.90;;;;;;4912021;29;36684;-78
2021/09/02 12:29:19;;;;;;;9.27;5.32;;;21.90;99.90;;;;;;4929795;28;37746;-77
2021/09/02 12:31:46;;;;;;;9.05;5.47;;;22.50;99.90;;;;;;4931013;29;39233;-78
2021/09/02 12:34:23;;;;;;;8.85;5.65;;;22.50;99.90;;;;;;4929708;29;39036;-79
2021/09/02 12:37:06;;;;;;;7.70;5.30;;;22.50;99.90;;;;;;4921509;28;37088;-78
2021/09/02 12:39:36;;;;;;;7.50;5.18;;;22.70;99.90;;;;;;4926946;28;47188;-78
2021/09/02 12:42:07;;;;;;;9.60;5.32;;;22.90;99.90;;;;;;4923884;29;38528;-77
2021/09/02 12:44:38;;;;;;;11.40;6.53;;;22.70;99.90;;;;;;4927820;29;38863;-77
2021/09/02 12:47:14;;;;;;;11.20;6.33;;;22.80;99.90;;;;;;4927919;28;37642;-77
2021/09/02 12:49:43;;;;;;;12.13;6.28;;;22.70;99.90;;;;;;4916697;28;37747;-77
2021/09/02 12:52:13;;;;;;;9.95;6.05;;;22.80;99.90;;;;;;4909382;29;39073;-77